createdAt,value
2022-12-13T00:01:18.299Z,-1.20
2022-12-13T00:03:46.205Z,-1.21
2022-12-13T00:06:14.381Z,-1.22
2022-12-13T00:08:42.779Z,-1.24
2022-12-13T00:11:12.772Z,-1.24
2022-12-13T00:13:41.775Z,-1.25
2022-12-13T00:16:12.392Z,-1.26
2022-12-13T00:18:40.306Z,-1.27
2022-12-13T00:21:11.039Z,-1.28
2022-12-13T00:23:38.771Z,-1.27
2022-12-13T00:26:06.690Z,-1.29
2022-12-13T00:28:34.716Z,-1.29
2022-12-13T00:31:26.963Z,-1.30
2022-12-13T00:33:52.939Z,-1.31
2022-12-13T00:36:21.113Z,-1.32
2022-12-13T00:39:00.358Z,-1.33
2022-12-13T00:41:29.939Z,-1.34
2022-12-13T00:43:58.664Z,-1.34
2022-12-13T00:46:26.548Z,-1.37
2022-12-13T00:48:56.649Z,-1.38
2022-12-13T00:51:24.976Z,-1.39
2022-12-13T00:53:52.662Z,-1.40
2022-12-13T00:56:21.925Z,-1.41
2022-12-13T00:58:52.256Z,-1.43
2022-12-13T01:01:21.340Z,-1.45
2022-12-13T01:03:49.099Z,-1.45
2022-12-13T01:06:19.439Z,-1.47
2022-12-13T01:08:47.293Z,-1.47
2022-12-13T01:11:15.810Z,-1.48
2022-12-13T01:13:43.855Z,-1.50
2022-12-13T01:16:12.553Z,-1.51
2022-12-13T01:18:41.071Z,-1.52
2022-12-13T01:21:09.500Z,-1.52
2022-12-13T01:23:38.997Z,-1.53
2022-12-13T01:26:07.909Z,-1.55
2022-12-13T01:28:35.530Z,-1.56
2022-12-13T01:31:04.439Z,-1.57
2022-12-13T01:33:33.745Z,-1.59
2022-12-13T01:36:01.992Z,-1.60
2022-12-13T01:38:30.547Z,-1.61
2022-12-13T01:40:59.597Z,-1.61
2022-12-13T01:43:29.564Z,-1.62
2022-12-13T01:45:57.374Z,-1.63
2022-12-13T01:48:28.641Z,-1.64
2022-12-13T01:51:01.058Z,-1.65
2022-12-13T01:53:30.093Z,-1.65
2022-12-13T01:56:03.481Z,-1.66
2022-12-13T01:58:31.534Z,-1.69
2022-12-13T02:01:00.923Z,-1.70
2022-12-13T02:03:28.831Z,-1.70
2022-12-13T02:06:01.075Z,-1.71
2022-12-13T02:08:29.740Z,-1.73
2022-12-13T02:10:59.664Z,-1.75
2022-12-13T02:13:27.398Z,-1.75
2022-12-13T02:15:59.496Z,-1.77
2022-12-13T02:18:36.654Z,-1.79
2022-12-13T02:21:08.491Z,-1.81
2022-12-13T02:23:48.955Z,-1.82
2022-12-13T02:26:34.465Z,-1.84
2022-12-13T02:29:12.105Z,-1.86
2022-12-13T02:32:02.773Z,-1.87
2022-12-13T02:34:36.165Z,-1.88
2022-12-13T02:37:17.428Z,-1.89
2022-12-13T02:39:50.565Z,-1.91
2022-12-13T02:42:21.421Z,-1.91
2022-12-13T02:44:52.466Z,-1.91
2022-12-13T02:47:22.978Z,-1.90
2022-12-13T02:49:52.505Z,-1.91
2022-12-13T02:52:22.745Z,-1.92
2022-12-13T02:54:50.541Z,-1.90
2022-12-13T02:57:30.085Z,-1.92
2022-12-13T02:59:58.844Z,-1.91
2022-12-13T03:02:32.330Z,-1.90
2022-12-13T03:05:22.282Z,-1.90
2022-12-13T03:07:56.692Z,-1.90
2022-12-13T03:10:29.998Z,-1.90
2022-12-13T03:13:18.937Z,-1.90
2022-12-13T03:15:54.344Z,-1.90
2022-12-13T03:18:25.198Z,-1.90
2022-12-13T03:20:55.734Z,-1.90
2022-12-13T03:23:24.453Z,-1.90
2022-12-13T03:25:56.729Z,-1.91
2022-12-13T03:28:24.858Z,-1.90
2022-12-13T03:30:52.590Z,-1.90
2022-12-13T03:33:20.328Z,-1.90
2022-12-13T03:35:49.733Z,-1.90
2022-12-13T03:38:21.337Z,-1.90
2022-12-13T03:40:51.957Z,-1.90
2022-12-13T03:43:21.575Z,-1.91
2022-12-13T03:45:50.244Z,-1.91
2022-12-13T03:48:21.716Z,-1.90
2022-12-13T03:50:52.936Z,-1.90
2022-12-13T03:53:22.697Z,-1.92
2022-12-13T03:56:01.309Z,-1.91
2022-12-13T03:58:35.728Z,-1.91
2022-12-13T04:01:04.953Z,-1.90
2022-12-13T04:03:32.570Z,-1.91
2022-12-13T04:06:01.744Z,-1.91
2022-12-13T04:08:29.509Z,-1.90
2022-12-13T04:10:57.634Z,-1.91
2022-12-13T04:13:33.373Z,-1.91
2022-12-13T04:16:01.211Z,-1.92
2022-12-13T04:18:29.001Z,-1.94
2022-12-13T04:20:57.444Z,-1.95
2022-12-13T04:23:26.796Z,-1.95
2022-12-13T04:25:54.752Z,-1.96
2022-12-13T04:28:23.214Z,-1.97
2022-12-13T04:30:52.948Z,-1.98
2022-12-13T04:33:21.747Z,-1.99
2022-12-13T04:35:49.434Z,-1.99
2022-12-13T04:38:17.807Z,-1.99
2022-12-13T04:40:46.855Z,-1.99
2022-12-13T04:43:14.483Z,-1.98
2022-12-13T04:45:42.228Z,-1.98
2022-12-13T04:48:10.157Z,-1.98
2022-12-13T04:50:38.079Z,-1.98
2022-12-13T04:53:05.950Z,-1.98
2022-12-13T04:55:33.700Z,-1.98
2022-12-13T04:58:02.723Z,-1.98
2022-12-13T05:00:30.452Z,-1.98
2022-12-13T05:03:00.886Z,-1.97
2022-12-13T05:05:28.542Z,-1.98
2022-12-13T05:07:56.437Z,-1.99
2022-12-13T05:10:33.943Z,-1.98
2022-12-13T05:13:07.193Z,-1.98
2022-12-13T05:15:35.348Z,-2.00
2022-12-13T05:18:10.612Z,-2.00
2022-12-13T05:20:39.250Z,-2.02
2022-12-13T05:23:07.126Z,-2.04
2022-12-13T05:25:37.064Z,-2.06
2022-12-13T05:28:27.090Z,-2.06
2022-12-13T05:30:56.123Z,-2.08
2022-12-13T05:33:24.717Z,-2.09
2022-12-13T05:35:57.702Z,-2.10
2022-12-13T05:38:27.681Z,-2.12
2022-12-13T05:40:55.414Z,-2.13
2022-12-13T05:43:42.344Z,-2.12
2022-12-13T05:46:11.341Z,-2.13
2022-12-13T05:48:39.196Z,-2.14
2022-12-13T05:51:10.126Z,-2.14
2022-12-13T05:53:39.231Z,-2.14
2022-12-13T05:56:07.423Z,-2.13
2022-12-13T05:58:37.252Z,-2.13
2022-12-13T06:01:09.002Z,-2.12
2022-12-13T06:03:37.291Z,-2.11
2022-12-13T06:06:05.593Z,-2.10
2022-12-13T06:08:33.464Z,-2.10
2022-12-13T06:11:09.835Z,-2.09
2022-12-13T06:13:42.086Z,-2.09
2022-12-13T06:16:22.738Z,-2.09
2022-12-13T06:18:55.905Z,-2.08
2022-12-13T06:21:39.148Z,-2.08
2022-12-13T06:24:11.722Z,-2.08
2022-12-13T06:26:39.479Z,-2.07
2022-12-13T06:29:08.631Z,-2.05
2022-12-13T06:31:37.093Z,-2.05
2022-12-13T06:34:14.617Z,-2.05
2022-12-13T06:36:43.276Z,-2.04
2022-12-13T06:39:10.998Z,-2.04
2022-12-13T06:41:38.829Z,-2.04
2022-12-13T06:44:07.894Z,-2.04
2022-12-13T06:46:35.911Z,-2.06
2022-12-13T06:49:08.416Z,-2.05
2022-12-13T06:51:36.142Z,-2.06
2022-12-13T06:54:03.963Z,-2.05
2022-12-13T06:56:31.913Z,-2.05
2022-12-13T06:59:01.971Z,-2.06
2022-12-13T07:01:37.790Z,-2.06
2022-12-13T07:04:28.855Z,-2.06
2022-12-13T07:07:01.578Z,-2.08
2022-12-13T07:09:30.781Z,-2.07
2022-12-13T07:11:58.539Z,-2.06
2022-12-13T07:14:26.333Z,-2.06
2022-12-13T07:17:02.863Z,-2.07
2022-12-13T07:19:34.816Z,-2.06
2022-12-13T07:22:06.011Z,-2.08
2022-12-13T07:24:35.254Z,-2.07
2022-12-13T07:27:03.116Z,-2.07
2022-12-13T07:29:30.880Z,-2.05
2022-12-13T07:32:01.189Z,-2.06
2022-12-13T07:34:30.042Z,-2.06
2022-12-13T07:36:57.716Z,-2.04
2022-12-13T07:39:26.943Z,-2.06
2022-12-13T07:41:55.387Z,-2.05
2022-12-13T07:44:23.089Z,-2.06
2022-12-13T07:46:50.982Z,-2.08
2022-12-13T07:49:20.372Z,-2.08
2022-12-13T07:51:49.089Z,-2.08
2022-12-13T07:54:16.989Z,-2.09
2022-12-13T07:56:45.890Z,-2.10
2022-12-13T07:59:13.774Z,-2.11
2022-12-13T08:01:41.591Z,-2.12
2022-12-13T08:04:10.311Z,-2.13
2022-12-13T08:06:39.765Z,-2.15
2022-12-13T08:09:07.663Z,-2.16
2022-12-13T08:11:35.806Z,-2.16
2022-12-13T08:14:04.894Z,-2.16
2022-12-13T08:16:32.875Z,-2.17
2022-12-13T08:19:04.256Z,-2.19
2022-12-13T08:21:54.090Z,-2.21
2022-12-13T08:24:24.316Z,-2.19
2022-12-13T08:26:52.088Z,-2.21
2022-12-13T08:29:23.349Z,-2.22
2022-12-13T08:32:03.355Z,-2.22
2022-12-13T08:34:31.738Z,-2.23
2022-12-13T08:37:01.457Z,-2.22
2022-12-13T08:39:34.072Z,-2.22
2022-12-13T08:42:15.753Z,-2.20
2022-12-13T08:44:47.149Z,-2.19
2022-12-13T08:47:24.481Z,-2.17
2022-12-13T08:49:53.918Z,-2.16
2022-12-13T08:52:22.055Z,-2.12
2022-12-13T08:54:51.447Z,-2.08
2022-12-13T08:57:19.132Z,-2.04
2022-12-13T08:59:46.886Z,-1.98
2022-12-13T09:02:14.907Z,-1.94
2022-12-13T09:04:43.006Z,-1.90
2022-12-13T09:07:10.827Z,-1.84
2022-12-13T09:09:38.770Z,-1.81
2022-12-13T09:12:10.985Z,-1.76
2022-12-13T09:15:01.150Z,-1.72
2022-12-13T09:17:36.755Z,-1.71
2022-12-13T09:20:09.634Z,-1.66
2022-12-13T09:22:45.098Z,-1.64
2022-12-13T09:25:24.378Z,-1.61
2022-12-13T09:27:54.924Z,-1.59
2022-12-13T09:30:22.672Z,-1.57
2022-12-13T09:32:50.674Z,-1.56
2022-12-13T09:35:18.406Z,-1.53
2022-12-13T09:37:48.939Z,-1.52
2022-12-13T09:40:25.813Z,-1.49
2022-12-13T09:43:21.665Z,-1.47
2022-12-13T09:45:46.423Z,-1.45
2022-12-13T09:48:22.853Z,-1.44
2022-12-13T09:51:18.137Z,-1.41
2022-12-13T09:53:41.078Z,-1.38
2022-12-13T09:56:12.852Z,-1.34
2022-12-13T09:58:41.976Z,-1.33
2022-12-13T10:01:09.823Z,-1.29
2022-12-13T10:03:37.664Z,-1.24
2022-12-13T10:06:13.386Z,-1.21
2022-12-13T10:08:43.001Z,-1.17
2022-12-13T10:11:12.960Z,-1.15
2022-12-13T10:13:44.457Z,-1.12
2022-12-13T10:16:15.185Z,-1.07
2022-12-13T10:18:51.564Z,-1.05
2022-12-13T10:21:23.331Z,-1.04
2022-12-13T10:26:40.512Z,-0.97
2022-12-13T10:29:10.260Z,-0.94
2022-12-13T10:31:43.467Z,-0.92
2022-12-13T10:34:22.450Z,-0.87
2022-12-13T10:36:50.308Z,-0.84
2022-12-13T10:39:19.436Z,-0.81
2022-12-13T10:41:47.667Z,-0.75
2022-12-13T10:44:21.453Z,-0.69
2022-12-13T10:46:54.780Z,-0.64
2022-12-13T10:49:23.667Z,-0.62
2022-12-13T10:51:52.041Z,-0.58
2022-12-13T10:54:26.659Z,-0.55
2022-12-13T10:57:00.053Z,-0.52
2022-12-13T10:59:33.912Z,-0.50
2022-12-13T11:02:03.779Z,-0.46
2022-12-13T11:04:32.579Z,-0.44
2022-12-13T11:07:04.012Z,-0.42
2022-12-13T11:09:38.326Z,-0.38
2022-12-13T11:12:14.397Z,-0.36
2022-12-13T11:14:49.711Z,-0.32
2022-12-13T11:17:18.274Z,-0.27
2022-12-13T11:19:47.718Z,-0.24
2022-12-13T11:22:21.435Z,-0.21
2022-12-13T11:24:51.712Z,-0.18
2022-12-13T11:27:41.007Z,-0.16
2022-12-13T11:30:12.855Z,-0.14
2022-12-13T11:32:49.441Z,-0.10
2022-12-13T11:35:22.496Z,-0.07
2022-12-13T11:37:55.745Z,-0.06
2022-12-13T11:40:25.308Z,-0.06
2022-12-13T11:42:55.000Z,-0.02
2022-12-13T11:45:28.046Z,-0.01
2022-12-13T11:48:02.791Z,0.01
2022-12-13T11:50:33.069Z,0.04
2022-12-13T11:53:15.772Z,0.06
2022-12-13T11:55:45.855Z,0.10
2022-12-13T11:58:16.608Z,0.12
2022-12-13T12:00:50.298Z,0.16
2022-12-13T12:03:19.888Z,0.17
2022-12-13T12:05:56.033Z,0.23
2022-12-13T12:08:31.139Z,0.25
2022-12-13T12:11:03.325Z,0.27
2022-12-13T12:13:33.558Z,0.31
2022-12-13T12:16:07.734Z,0.30
2022-12-13T12:18:35.596Z,0.35
2022-12-13T12:21:09.267Z,0.39
2022-12-13T12:23:52.319Z,0.42
2022-12-13T12:26:27.820Z,0.43
2022-12-13T12:29:11.952Z,0.45
2022-12-13T12:31:50.923Z,0.45
2022-12-13T12:34:27.225Z,0.49
2022-12-13T12:37:03.368Z,0.49
2022-12-13T12:39:37.770Z,0.51
2022-12-13T12:42:21.467Z,0.53
2022-12-13T12:44:58.980Z,0.54
2022-12-13T12:47:57.786Z,0.54
2022-12-13T12:50:26.890Z,0.55
2022-12-13T12:53:11.348Z,0.56
2022-12-13T12:55:49.347Z,0.55
2022-12-13T12:58:25.167Z,0.53
2022-12-13T13:01:01.568Z,0.51
2022-12-13T13:03:32.467Z,0.48
2022-12-13T13:06:03.060Z,0.46
2022-12-13T13:08:34.540Z,0.44
2022-12-13T13:11:02.434Z,0.41
2022-12-13T13:13:37.702Z,0.38
2022-12-13T13:16:30.033Z,0.35
2022-12-13T13:18:59.477Z,0.32
2022-12-13T13:21:42.807Z,0.31
2022-12-13T13:24:28.297Z,0.28
2022-12-13T13:26:56.854Z,0.28
2022-12-13T13:29:32.457Z,0.26
2022-12-13T13:32:03.090Z,0.26
2022-12-13T13:34:36.135Z,0.25
2022-12-13T13:37:05.061Z,0.24
2022-12-13T13:39:54.007Z,0.23
2022-12-13T13:42:22.616Z,0.22
2022-12-13T13:45:01.500Z,0.18
2022-12-13T13:47:40.068Z,0.18
2022-12-13T13:50:32.155Z,0.18
2022-12-13T13:53:10.642Z,0.15
2022-12-13T13:56:01.600Z,0.14
2022-12-13T13:58:44.523Z,0.12
2022-12-13T14:01:34.674Z,0.11
2022-12-13T14:04:21.401Z,0.10
2022-12-13T14:07:01.151Z,0.09
2022-12-13T14:09:44.380Z,0.07
2022-12-13T14:12:33.276Z,0.07
2022-12-13T14:15:24.788Z,0.06
2022-12-13T14:18:13.397Z,0.04
2022-12-13T14:21:12.873Z,0.03
2022-12-13T14:23:49.105Z,0.00
2022-12-13T14:26:23.735Z,-0.02
2022-12-13T14:28:53.821Z,-0.03
2022-12-13T14:31:23.008Z,-0.05
2022-12-13T14:33:54.136Z,-0.06
2022-12-13T14:36:27.614Z,-0.08
2022-12-13T14:39:02.684Z,-0.09
2022-12-13T14:41:31.018Z,-0.10
2022-12-13T14:44:13.720Z,-0.10
2022-12-13T14:46:49.115Z,-0.13
2022-12-13T14:49:17.199Z,-0.14
2022-12-13T14:51:45.544Z,-0.15
2022-12-13T14:54:25.539Z,-0.15
2022-12-13T14:56:57.772Z,-0.15
2022-12-13T14:59:26.077Z,-0.17
2022-12-13T15:01:58.925Z,-0.18
2022-12-13T15:04:29.533Z,-0.18
2022-12-13T15:07:00.425Z,-0.19
2022-12-13T15:09:29.966Z,-0.20
2022-12-13T15:12:15.070Z,-0.21
2022-12-13T15:14:48.258Z,-0.23
2022-12-13T15:17:28.846Z,-0.22
2022-12-13T15:19:59.269Z,-0.23
2022-12-13T15:22:34.976Z,-0.24
2022-12-13T15:25:16.182Z,-0.25
2022-12-13T15:27:52.434Z,-0.25
2022-12-13T15:30:23.137Z,-0.25
2022-12-13T15:33:07.833Z,-0.25
2022-12-13T15:35:37.709Z,-0.26
2022-12-13T15:38:05.512Z,-0.25
2022-12-13T15:40:35.010Z,-0.25
2022-12-13T15:43:03.106Z,-0.26
2022-12-13T15:45:36.837Z,-0.27
2022-12-13T15:48:05.800Z,-0.28
2022-12-13T15:50:35.316Z,-0.27
2022-12-13T15:53:04.061Z,-0.28
2022-12-13T15:55:36.915Z,-0.27
2022-12-13T15:58:05.045Z,-0.27
2022-12-13T16:00:34.385Z,-0.27
2022-12-13T16:03:09.449Z,-0.27
2022-12-13T16:05:39.490Z,-0.27
2022-12-13T16:08:13.582Z,-0.27
2022-12-13T16:10:48.382Z,-0.26
2022-12-13T16:13:26.516Z,-0.28
2022-12-13T16:16:00.446Z,-0.27
2022-12-13T16:18:52.335Z,-0.28
2022-12-13T16:21:20.272Z,-0.28
2022-12-13T16:23:49.260Z,-0.28
2022-12-13T16:26:23.798Z,-0.28
2022-12-13T16:28:51.614Z,-0.28
2022-12-13T16:31:21.324Z,-0.28
2022-12-13T16:33:49.184Z,-0.29
2022-12-13T16:36:16.900Z,-0.29
2022-12-13T16:38:44.685Z,-0.28
2022-12-13T16:41:12.834Z,-0.29
2022-12-13T16:43:49.076Z,-0.29
2022-12-13T16:47:11.875Z,-0.30
2022-12-13T16:49:14.820Z,-0.30
2022-12-13T16:51:48.008Z,-0.33
2022-12-13T16:54:16.544Z,-0.31
2022-12-13T16:56:44.480Z,-0.31
2022-12-13T16:59:15.365Z,-0.31
2022-12-13T17:01:43.658Z,-0.30
2022-12-13T17:04:17.839Z,-0.32
2022-12-13T17:06:49.262Z,-0.31
2022-12-13T17:09:17.359Z,-0.31
2022-12-13T17:11:46.784Z,-0.31
2022-12-13T17:14:16.624Z,-0.31
2022-12-13T17:16:44.714Z,-0.30
2022-12-13T17:19:14.668Z,-0.31
2022-12-13T17:21:42.611Z,-0.31
2022-12-13T17:24:10.319Z,-0.32
2022-12-13T17:26:38.074Z,-0.32
2022-12-13T17:29:05.821Z,-0.34
2022-12-13T17:31:36.245Z,-0.33
2022-12-13T17:34:04.373Z,-0.33
2022-12-13T17:36:35.192Z,-0.34
2022-12-13T17:39:03.203Z,-0.33
2022-12-13T17:41:30.944Z,-0.34
2022-12-13T17:43:59.449Z,-0.34
2022-12-13T17:46:27.309Z,-0.34
2022-12-13T17:48:56.649Z,-0.35
2022-12-13T17:51:24.668Z,-0.34
2022-12-13T17:53:52.781Z,-0.36
2022-12-13T17:56:20.639Z,-0.36
2022-12-13T17:58:48.797Z,-0.36
2022-12-13T18:01:17.621Z,-0.35
2022-12-13T18:03:45.934Z,-0.36
2022-12-13T18:06:15.199Z,-0.37
2022-12-13T18:08:44.445Z,-0.38
2022-12-13T18:14:01.367Z,-0.39
2022-12-13T18:16:37.103Z,-0.39
2022-12-13T18:19:07.125Z,-0.41
2022-12-13T18:21:37.172Z,-0.39
2022-12-13T18:24:05.761Z,-0.39
2022-12-13T18:26:33.753Z,-0.39
2022-12-13T18:29:01.851Z,-0.40
2022-12-13T18:31:29.680Z,-0.41
2022-12-13T18:33:57.921Z,-0.42
2022-12-13T18:36:26.479Z,-0.42
2022-12-13T18:38:56.844Z,-0.41
2022-12-13T18:41:28.043Z,-0.42
2022-12-13T18:43:59.427Z,-0.42
2022-12-13T18:46:28.630Z,-0.42
2022-12-13T18:48:56.774Z,-0.43
2022-12-13T18:51:24.901Z,-0.41
2022-12-13T18:53:53.458Z,-0.42
2022-12-13T18:56:24.068Z,-0.43
2022-12-13T18:58:52.422Z,-0.44
2022-12-13T19:01:20.493Z,-0.43
2022-12-13T19:03:49.207Z,-0.44
2022-12-13T19:06:18.299Z,-0.43
2022-12-13T19:08:48.209Z,-0.43
2022-12-13T19:11:16.403Z,-0.44
2022-12-13T19:13:45.651Z,-0.43
2022-12-13T19:16:14.502Z,-0.42
2022-12-13T19:18:42.786Z,-0.42
2022-12-13T19:21:13.323Z,-0.42
2022-12-13T19:23:41.161Z,-0.42
2022-12-13T19:26:09.510Z,-0.41
2022-12-13T19:28:38.807Z,-0.42
2022-12-13T19:31:08.521Z,-0.41
2022-12-13T19:33:36.408Z,-0.40
2022-12-13T19:36:04.637Z,-0.39
2022-12-13T19:38:32.633Z,-0.37
2022-12-13T19:41:00.374Z,-0.39
2022-12-13T19:43:28.577Z,-0.39
2022-12-13T19:45:56.560Z,-0.40
2022-12-13T19:48:26.720Z,-0.41
2022-12-13T19:50:59.164Z,-0.42
2022-12-13T19:53:27.329Z,-0.42
2022-12-13T19:55:55.574Z,-0.41
2022-12-13T19:58:24.736Z,-0.42
2022-12-13T20:00:52.788Z,-0.42
2022-12-13T20:03:21.630Z,-0.42
2022-12-13T20:05:59.014Z,-0.43
2022-12-13T20:08:28.382Z,-0.41
2022-12-13T20:10:58.562Z,-0.43
2022-12-13T20:13:28.495Z,-0.43
2022-12-13T20:15:56.916Z,-0.43
2022-12-13T20:18:26.546Z,-0.44
2022-12-13T20:21:12.666Z,-0.45
2022-12-13T20:23:42.414Z,-0.45
2022-12-13T20:26:18.074Z,-0.46
2022-12-13T20:28:45.810Z,-0.47
2022-12-13T20:31:14.489Z,-0.47
2022-12-13T20:33:42.274Z,-0.48
2022-12-13T20:36:28.298Z,-0.49
2022-12-13T20:38:56.949Z,-0.50
2022-12-13T20:41:26.096Z,-0.50
2022-12-13T20:43:54.210Z,-0.50
2022-12-13T20:46:22.591Z,-0.50
2022-12-13T20:48:50.880Z,-0.50
2022-12-13T20:51:20.874Z,-0.51
2022-12-13T20:53:50.653Z,-0.51
2022-12-13T20:56:19.425Z,-0.52
2022-12-13T20:58:47.193Z,-0.51
2022-12-13T21:01:15.900Z,-0.52
2022-12-13T21:03:43.794Z,-0.53
2022-12-13T21:06:11.645Z,-0.53
2022-12-13T21:08:54.024Z,-0.54
2022-12-13T21:12:10.371Z,-0.55
2022-12-13T21:14:38.246Z,-0.56
2022-12-13T21:17:09.645Z,-0.57
2022-12-13T21:19:40.214Z,-0.57
2022-12-13T21:22:08.654Z,-0.59
2022-12-13T21:24:37.841Z,-0.58
2022-12-13T21:27:06.329Z,-0.60
2022-12-13T21:29:34.148Z,-0.60
2022-12-13T21:32:02.345Z,-0.61
2022-12-13T21:34:30.276Z,-0.61
2022-12-13T21:36:58.362Z,-0.63
2022-12-13T21:39:28.460Z,-0.64
2022-12-13T21:41:57.948Z,-0.64
2022-12-13T21:44:25.736Z,-0.66
2022-12-13T21:49:41.362Z,-0.66
2022-12-13T21:52:09.092Z,-0.67
2022-12-13T21:54:36.842Z,-0.68
2022-12-13T21:57:23.485Z,-0.67
2022-12-13T21:59:51.214Z,-0.69
2022-12-13T22:02:19.584Z,-0.69
2022-12-13T22:04:48.754Z,-0.68
2022-12-13T22:07:17.513Z,-0.69
2022-12-13T22:09:45.615Z,-0.68
2022-12-13T22:12:20.402Z,-0.68
2022-12-13T22:14:48.261Z,-0.68
2022-12-13T22:17:16.044Z,-0.67
2022-12-13T22:19:43.855Z,-0.67
2022-12-13T22:22:16.456Z,-0.67
2022-12-13T22:24:48.430Z,-0.66
2022-12-13T22:27:23.933Z,-0.67
2022-12-13T22:29:52.120Z,-0.66
2022-12-13T22:32:19.963Z,-0.67
2022-12-13T22:34:47.756Z,-0.67
2022-12-13T22:37:16.111Z,-0.68
2022-12-13T22:39:44.216Z,-0.70
2022-12-13T22:42:11.858Z,-0.69
2022-12-13T22:44:40.970Z,-0.68
2022-12-13T22:47:08.617Z,-0.69
2022-12-13T22:49:38.073Z,-0.69
2022-12-13T22:52:06.034Z,-0.69
2022-12-13T22:54:33.817Z,-0.69
2022-12-13T22:57:02.749Z,-0.69
2022-12-13T22:59:30.702Z,-0.69
2022-12-13T23:02:02.512Z,-0.69
2022-12-13T23:04:33.317Z,-0.70
2022-12-13T23:07:01.156Z,-0.69
2022-12-13T23:09:28.953Z,-0.70
2022-12-13T23:12:14.465Z,-0.69
2022-12-13T23:14:42.252Z,-0.71
2022-12-13T23:17:12.654Z,-0.72
2022-12-13T23:19:50.407Z,-0.72
2022-12-13T23:22:20.782Z,-0.73
2022-12-13T23:24:48.495Z,-0.73
2022-12-13T23:27:16.367Z,-0.73
2022-12-13T23:29:45.065Z,-0.75
2022-12-13T23:32:14.249Z,-0.75
2022-12-13T23:34:42.147Z,-0.75
2022-12-13T23:37:09.943Z,-0.76
2022-12-13T23:39:37.784Z,-0.79
2022-12-13T23:42:05.767Z,-0.78
2022-12-13T23:44:33.490Z,-0.80
2022-12-13T23:47:01.296Z,-0.80
2022-12-13T23:49:30.351Z,-0.80
2022-12-13T23:51:58.134Z,-0.82
2022-12-13T23:54:27.291Z,-0.80
2022-12-13T23:56:55.350Z,-0.81
2022-12-13T23:59:25.832Z,-0.82
